createdAt,value
2023-04-07T00:02:27.620Z,6.96
2023-04-07T00:05:04.281Z,6.65
2023-04-07T00:07:52.378Z,6.86
2023-04-07T00:10:40.198Z,6.64
2023-04-07T00:13:23.813Z,7.02
2023-04-07T00:15:53.468Z,6.55
2023-04-07T00:18:22.664Z,6.64
2023-04-07T00:20:59.758Z,6.96
2023-04-07T00:23:33.914Z,6.90
2023-04-07T00:26:32.948Z,6.62
2023-04-07T00:29:06.165Z,6.62
2023-04-07T00:31:37.525Z,6.39
2023-04-07T00:34:15.911Z,6.48
2023-04-07T00:36:52.491Z,6.89
2023-04-07T00:39:23.783Z,6.86
2023-04-07T00:41:55.254Z,6.54
2023-04-07T00:44:24.668Z,6.53
2023-04-07T00:46:56.097Z,6.37
2023-04-07T00:49:28.760Z,6.42
2023-04-07T00:51:59.188Z,6.63
2023-04-07T00:54:30.741Z,6.72
2023-04-07T00:57:03.115Z,6.84
2023-04-07T00:59:46.370Z,6.89
2023-04-07T01:02:19.781Z,6.67
2023-04-07T01:04:53.584Z,6.78
2023-04-07T01:07:33.548Z,6.83
2023-04-07T01:10:08.554Z,6.91
2023-04-07T01:12:42.927Z,6.97
2023-04-07T01:15:21.712Z,7.04
2023-04-07T01:17:57.395Z,6.86
2023-04-07T01:20:28.844Z,6.84
2023-04-07T01:22:58.238Z,7.39
2023-04-07T01:25:59.495Z,7.12
2023-04-07T01:28:59.686Z,7.11
2023-04-07T01:31:36.815Z,6.96
2023-04-07T01:34:11.960Z,6.83
2023-04-07T01:36:46.158Z,6.87
2023-04-07T01:39:15.966Z,6.49
2023-04-07T01:41:55.373Z,6.85
2023-04-07T01:44:25.253Z,6.59
2023-04-07T01:46:59.961Z,6.89
2023-04-07T01:49:32.286Z,6.66
2023-04-07T01:52:07.306Z,6.90
2023-04-07T01:54:36.731Z,6.48
2023-04-07T01:57:11.856Z,6.42
2023-04-07T01:59:41.694Z,6.44
2023-04-07T02:02:13.937Z,6.89
2023-04-07T02:04:52.248Z,6.89
2023-04-07T02:07:26.405Z,6.85
2023-04-07T02:09:59.897Z,6.63
2023-04-07T02:12:35.897Z,6.95
2023-04-07T02:15:06.803Z,6.66
2023-04-07T02:17:41.195Z,6.94
2023-04-07T02:20:11.655Z,6.80
2023-04-07T02:22:58.090Z,6.59
2023-04-07T02:25:31.652Z,6.77
2023-04-07T02:28:03.100Z,6.70
2023-04-07T02:30:35.282Z,6.39
2023-04-07T02:33:14.518Z,6.77
2023-04-07T02:35:44.414Z,6.49
2023-04-07T02:38:14.877Z,7.37
2023-04-07T02:40:47.339Z,6.59
2023-04-07T02:43:22.796Z,6.85
2023-04-07T02:45:55.919Z,6.42
2023-04-07T02:48:30.532Z,6.73
2023-04-07T02:51:01.538Z,6.76
2023-04-07T02:53:33.470Z,6.83
2023-04-07T02:56:12.029Z,6.81
2023-04-07T02:58:42.061Z,6.51
2023-04-07T03:01:11.842Z,6.50
2023-04-07T03:04:10.764Z,6.79
2023-04-07T03:06:44.049Z,6.41
2023-04-07T03:09:14.855Z,6.56
2023-04-07T03:11:46.815Z,6.40
2023-04-07T03:14:19.518Z,6.48
2023-04-07T03:17:01.858Z,6.84
2023-04-07T03:19:36.957Z,6.80
2023-04-07T03:22:06.235Z,6.52
2023-04-07T03:24:38.660Z,6.66
2023-04-07T03:27:18.070Z,6.84
2023-04-07T03:29:48.192Z,6.47
2023-04-07T03:32:18.273Z,6.37
2023-04-07T03:34:59.458Z,6.80
2023-04-07T03:38:02.304Z,6.96
2023-04-07T03:40:36.170Z,6.77
2023-04-07T03:43:05.999Z,6.54
2023-04-07T03:45:53.360Z,6.53
2023-04-07T03:48:30.400Z,6.31
2023-04-07T03:51:02.790Z,6.57
2023-04-07T03:53:32.478Z,6.20
2023-04-07T03:56:05.375Z,6.22
2023-04-07T03:58:43.261Z,6.33
2023-04-07T04:01:19.866Z,6.32
2023-04-07T04:03:58.264Z,6.20
2023-04-07T04:06:32.463Z,7.11
2023-04-07T04:09:02.076Z,6.32
2023-04-07T04:11:32.005Z,6.20
2023-04-07T04:14:09.703Z,6.27
2023-04-07T04:16:42.574Z,6.45
2023-04-07T04:19:13.824Z,6.37
2023-04-07T04:21:46.594Z,6.67
2023-04-07T04:24:15.839Z,6.38
2023-04-07T04:26:47.266Z,6.54
2023-04-07T04:29:18.386Z,6.67
2023-04-07T04:31:57.118Z,6.59
2023-04-07T04:34:26.426Z,6.38
2023-04-07T04:39:44.865Z,6.37
2023-04-07T04:42:19.162Z,6.43
2023-04-07T04:44:50.357Z,6.15
2023-04-07T04:47:23.011Z,6.21
2023-04-07T04:50:00.163Z,6.81
2023-04-07T04:52:33.997Z,6.75
2023-04-07T04:55:08.305Z,6.45
2023-04-07T04:57:48.800Z,6.56
2023-04-07T05:00:21.369Z,6.44
2023-04-07T05:02:50.859Z,6.21
2023-04-07T05:05:22.730Z,6.23
2023-04-07T05:08:01.500Z,6.57
2023-04-07T05:10:30.362Z,6.34
2023-04-07T05:13:02.300Z,6.40
2023-04-07T05:15:31.929Z,6.36
2023-04-07T05:18:01.685Z,6.33
2023-04-07T05:20:30.991Z,6.39
2023-04-07T05:23:03.036Z,6.69
2023-04-07T05:25:32.888Z,6.39
2023-04-07T05:28:03.208Z,6.54
2023-04-07T05:30:33.785Z,6.34
2023-04-07T05:33:06.355Z,6.52
2023-04-07T05:35:35.934Z,6.54
2023-04-07T05:38:07.173Z,6.93
2023-04-07T05:40:37.406Z,6.58
2023-04-07T05:43:07.668Z,6.65
2023-04-07T05:45:37.099Z,6.41
2023-04-07T05:48:06.976Z,6.44
2023-04-07T05:50:36.283Z,6.75
2023-04-07T05:53:07.361Z,7.06
2023-04-07T05:55:36.536Z,6.70
2023-04-07T05:58:06.143Z,6.80
2023-04-07T06:00:39.627Z,7.22
2023-04-07T06:03:08.894Z,6.69
2023-04-07T06:05:38.699Z,6.58
2023-04-07T06:08:10.534Z,7.04
2023-04-07T06:10:40.368Z,6.71
2023-04-07T06:13:10.277Z,6.81
2023-04-07T06:15:39.925Z,6.89
2023-04-07T06:18:09.663Z,6.85
2023-04-07T06:20:43.401Z,7.33
2023-04-07T06:23:19.363Z,7.42
2023-04-07T06:25:52.247Z,7.04
2023-04-07T06:28:22.515Z,7.11
2023-04-07T06:30:58.406Z,7.41
2023-04-07T06:33:29.208Z,7.17
2023-04-07T06:36:00.221Z,7.55
2023-04-07T06:38:31.768Z,7.58
2023-04-07T06:41:06.724Z,7.62
2023-04-07T06:43:36.025Z,7.65
2023-04-07T06:46:08.291Z,7.82
2023-04-07T06:48:37.756Z,7.89
2023-04-07T06:51:07.356Z,8.11
2023-04-07T06:53:38.115Z,8.34
2023-04-07T06:56:08.437Z,8.30
2023-04-07T06:58:38.494Z,8.13
2023-04-07T07:01:08.287Z,8.23
2023-04-07T07:03:37.678Z,7.92
2023-04-07T07:06:06.900Z,8.04
2023-04-07T07:08:37.619Z,8.07
2023-04-07T07:11:06.690Z,8.16
2023-04-07T07:13:36.461Z,8.14
2023-04-07T07:16:06.053Z,8.07
2023-04-07T07:18:43.637Z,7.99
2023-04-07T07:21:24.661Z,8.36
2023-04-07T07:23:57.864Z,8.99
2023-04-07T07:26:27.625Z,7.97
2023-04-07T07:29:11.337Z,8.20
2023-04-07T07:31:40.860Z,7.80
2023-04-07T07:34:13.252Z,7.92
2023-04-07T07:36:44.838Z,7.92
2023-04-07T07:39:16.346Z,8.30
2023-04-07T07:41:48.576Z,7.76
2023-04-07T07:44:22.583Z,7.84
2023-04-07T07:46:51.425Z,7.69
2023-04-07T07:49:20.700Z,7.65
2023-04-07T07:51:49.852Z,7.77
2023-04-07T07:54:20.373Z,8.18
2023-04-07T07:59:54.868Z,8.55
2023-04-07T08:02:32.177Z,8.41
2023-04-07T08:05:06.059Z,8.32
2023-04-07T08:07:38.253Z,8.04
2023-04-07T08:10:09.988Z,8.38
2023-04-07T08:12:39.861Z,7.78
2023-04-07T08:15:10.618Z,7.96
2023-04-07T08:18:00.130Z,8.54
2023-04-07T08:20:36.389Z,8.17
2023-04-07T08:23:06.718Z,8.38
2023-04-07T08:25:37.537Z,8.90
2023-04-07T08:28:08.237Z,8.81
2023-04-07T08:30:38.679Z,8.64
2023-04-07T08:33:08.532Z,8.50
2023-04-07T08:35:37.815Z,8.67
2023-04-07T08:38:09.268Z,8.37
2023-04-07T08:40:41.130Z,8.84
2023-04-07T08:43:11.116Z,9.55
2023-04-07T08:45:45.115Z,8.97
2023-04-07T08:48:19.094Z,8.96
2023-04-07T08:50:54.927Z,8.62
2023-04-07T08:53:30.248Z,8.75
2023-04-07T08:56:08.349Z,8.92
2023-04-07T08:58:38.726Z,8.74
2023-04-07T09:01:08.869Z,8.67
2023-04-07T09:03:42.931Z,8.72
2023-04-07T09:06:19.532Z,8.85
2023-04-07T09:08:49.226Z,8.36
2023-04-07T09:11:20.854Z,8.84
2023-04-07T09:13:59.277Z,8.81
2023-04-07T09:16:36.428Z,8.79
2023-04-07T09:19:07.124Z,8.47
2023-04-07T09:21:51.762Z,9.31
2023-04-07T09:24:27.314Z,9.41
2023-04-07T09:27:21.391Z,9.63
2023-04-07T09:29:53.578Z,8.79
2023-04-07T09:32:39.567Z,9.36
2023-04-07T09:35:20.968Z,8.85
2023-04-07T09:38:07.167Z,9.16
2023-04-07T09:40:43.916Z,8.60
2023-04-07T09:43:21.152Z,8.76
2023-04-07T09:45:53.585Z,8.33
2023-04-07T09:48:23.698Z,8.38
2023-04-07T09:50:54.261Z,8.60
2023-04-07T09:53:44.391Z,9.40
2023-04-07T09:56:14.779Z,8.85
2023-04-07T09:58:48.044Z,9.39
2023-04-07T10:01:21.118Z,8.99
2023-04-07T10:03:53.246Z,8.52
2023-04-07T10:06:24.728Z,8.51
2023-04-07T10:08:55.861Z,8.63
2023-04-07T10:11:26.796Z,8.75
2023-04-07T10:14:00.630Z,9.06
2023-04-07T10:16:33.006Z,8.53
2023-04-07T10:19:03.914Z,8.37
2023-04-07T10:21:33.161Z,8.34
2023-04-07T10:24:23.828Z,8.88
2023-04-07T10:27:11.950Z,8.94
2023-04-07T10:29:59.585Z,9.17
2023-04-07T10:32:31.679Z,8.90
2023-04-07T10:35:04.457Z,9.04
2023-04-07T10:37:36.687Z,9.03
2023-04-07T10:40:33.388Z,9.48
2023-04-07T10:43:04.401Z,8.70
2023-04-07T10:46:01.153Z,9.36
2023-04-07T10:48:37.323Z,8.60
2023-04-07T10:51:24.790Z,9.24
2023-04-07T10:54:26.786Z,9.33
2023-04-07T10:57:15.028Z,9.17
2023-04-07T11:00:19.780Z,9.09
2023-04-07T11:02:52.553Z,8.66
2023-04-07T11:05:23.972Z,8.62
2023-04-07T11:07:59.661Z,8.77
2023-04-07T11:10:28.837Z,8.29
2023-04-07T11:13:02.853Z,8.91
2023-04-07T11:15:32.926Z,8.41
2023-04-07T11:18:18.409Z,9.25
2023-04-07T11:20:51.802Z,9.01
2023-04-07T11:23:23.421Z,8.96
2023-04-07T11:26:07.646Z,9.36
2023-04-07T11:28:42.128Z,9.13
2023-04-07T11:31:13.428Z,8.54
2023-04-07T11:33:54.415Z,8.94
2023-04-07T11:36:31.134Z,8.88
2023-04-07T11:39:01.604Z,8.68
2023-04-07T11:41:32.909Z,8.85
2023-04-07T11:44:08.608Z,9.28
2023-04-07T11:46:38.190Z,9.02
2023-04-07T11:49:13.314Z,9.46
2023-04-07T11:51:44.249Z,9.37
2023-04-07T11:54:13.580Z,9.27
2023-04-07T11:56:48.007Z,9.77
2023-04-07T11:59:27.224Z,9.86
2023-04-07T12:01:58.116Z,9.26
2023-04-07T12:04:29.012Z,10.32
2023-04-07T12:07:09.090Z,9.89
2023-04-07T12:09:38.878Z,9.40
2023-04-07T12:12:10.819Z,9.44
2023-04-07T12:14:40.201Z,9.11
2023-04-07T12:17:09.636Z,9.02
2023-04-07T12:19:40.074Z,9.38
2023-04-07T12:22:09.042Z,9.09
2023-04-07T12:24:48.228Z,9.04
2023-04-07T12:27:19.330Z,9.05
2023-04-07T12:29:54.236Z,8.65
2023-04-07T12:32:23.046Z,8.49
2023-04-07T12:34:54.268Z,8.80
2023-04-07T12:37:26.596Z,8.61
2023-04-07T12:39:55.700Z,8.76
2023-04-07T12:42:24.286Z,8.82
2023-04-07T12:44:56.974Z,9.01
2023-04-07T12:47:25.704Z,8.76
2023-04-07T12:49:59.223Z,9.21
2023-04-07T12:52:30.869Z,8.78
2023-04-07T12:54:59.979Z,8.75
2023-04-07T12:57:29.088Z,8.85
2023-04-07T13:00:01.781Z,8.96
2023-04-07T13:02:33.130Z,9.97
2023-04-07T13:05:06.501Z,9.38
2023-04-07T13:07:37.525Z,8.98
2023-04-07T13:10:08.626Z,9.21
2023-04-07T13:12:40.397Z,9.08
2023-04-07T13:15:10.231Z,9.01
2023-04-07T13:17:41.744Z,8.97
2023-04-07T13:20:13.464Z,9.39
2023-04-07T13:22:50.624Z,10.09
2023-04-07T13:25:33.799Z,9.65
2023-04-07T13:28:03.066Z,9.11
2023-04-07T13:30:33.006Z,9.27
2023-04-07T13:33:01.932Z,8.83
2023-04-07T13:35:36.172Z,9.21
2023-04-07T13:38:06.022Z,8.73
2023-04-07T13:40:38.672Z,8.72
2023-04-07T13:43:12.743Z,8.64
2023-04-07T13:45:51.314Z,9.25
2023-04-07T13:48:29.469Z,8.74
2023-04-07T13:51:01.612Z,9.18
2023-04-07T13:53:31.545Z,8.83
2023-04-07T13:56:04.461Z,8.93
2023-04-07T13:58:36.879Z,8.87
2023-04-07T14:01:17.870Z,8.86
2023-04-07T14:03:53.498Z,9.24
2023-04-07T14:06:25.080Z,9.18
2023-04-07T14:08:54.505Z,9.09
2023-04-07T14:11:24.228Z,9.24
2023-04-07T14:13:54.711Z,9.27
2023-04-07T14:16:27.817Z,9.34
2023-04-07T14:19:05.461Z,9.74
2023-04-07T14:21:40.025Z,9.66
2023-04-07T14:24:14.627Z,9.58
2023-04-07T14:26:48.302Z,9.59
2023-04-07T14:29:36.519Z,9.67
2023-04-07T14:32:16.588Z,9.69
2023-04-07T14:34:45.875Z,9.08
2023-04-07T14:37:19.111Z,9.53
2023-04-07T14:40:01.846Z,9.26
2023-04-07T14:42:36.215Z,9.40
2023-04-07T14:45:16.460Z,9.29
2023-04-07T14:47:46.242Z,9.28
2023-04-07T14:50:15.422Z,9.26
2023-04-07T14:52:46.936Z,9.58
2023-04-07T14:55:16.672Z,9.21
2023-04-07T14:57:46.231Z,9.28
2023-04-07T15:00:19.585Z,9.40
2023-04-07T15:02:54.948Z,9.31
2023-04-07T15:05:28.863Z,9.16
2023-04-07T15:08:03.225Z,9.46
2023-04-07T15:10:36.517Z,9.09
2023-04-07T15:13:06.289Z,9.27
2023-04-07T15:15:41.063Z,9.31
2023-04-07T15:18:13.490Z,9.44
2023-04-07T15:20:43.332Z,9.30
2023-04-07T15:23:15.293Z,9.83
2023-04-07T15:25:49.467Z,9.63
2023-04-07T15:28:21.161Z,9.96
2023-04-07T15:30:52.131Z,9.60
2023-04-07T15:33:25.384Z,9.57
2023-04-07T15:35:55.281Z,9.55
2023-04-07T15:38:26.804Z,9.89
2023-04-07T15:40:56.646Z,9.54
2023-04-07T15:43:26.034Z,9.60
2023-04-07T15:45:56.486Z,9.85
2023-04-07T15:48:26.177Z,9.54
2023-04-07T15:50:56.201Z,9.59
2023-04-07T15:53:30.995Z,9.84
2023-04-07T15:56:05.132Z,9.60
2023-04-07T15:58:40.933Z,9.50
2023-04-07T16:01:17.521Z,9.68
2023-04-07T16:04:19.697Z,10.13
2023-04-07T16:06:52.479Z,9.74
2023-04-07T16:09:28.184Z,9.96
2023-04-07T16:11:57.633Z,9.53
2023-04-07T16:14:34.305Z,9.96
2023-04-07T16:17:07.477Z,9.58
2023-04-07T16:19:43.953Z,9.61
2023-04-07T16:22:12.996Z,9.36
2023-04-07T16:24:46.024Z,9.75
2023-04-07T16:27:15.352Z,9.32
2023-04-07T16:29:44.838Z,9.36
2023-04-07T16:32:14.993Z,9.50
2023-04-07T16:34:59.603Z,9.78
2023-04-07T16:37:30.535Z,9.23
2023-04-07T16:40:01.917Z,9.56
2023-04-07T16:42:30.870Z,9.16
2023-04-07T16:45:04.470Z,9.44
2023-04-07T16:50:25.929Z,9.69
2023-04-07T16:52:57.529Z,9.10
2023-04-07T16:55:29.545Z,9.47
2023-04-07T16:57:59.076Z,9.31
2023-04-07T17:00:33.239Z,9.25
2023-04-07T17:03:02.297Z,9.05
2023-04-07T17:05:34.710Z,9.29
2023-04-07T17:08:06.010Z,9.17
2023-04-07T17:10:36.724Z,9.59
2023-04-07T17:13:05.715Z,9.18
2023-04-07T17:15:37.980Z,9.67
2023-04-07T17:18:07.169Z,9.19
2023-04-07T17:20:36.324Z,9.26
2023-04-07T17:23:09.515Z,9.04
2023-04-07T17:25:43.267Z,9.49
2023-04-07T17:28:20.472Z,9.10
2023-04-07T17:30:50.532Z,9.07
2023-04-07T17:33:19.824Z,9.14
2023-04-07T17:35:55.352Z,9.13
2023-04-07T17:38:27.031Z,8.79
2023-04-07T17:41:04.950Z,9.42
2023-04-07T17:43:40.522Z,9.05
2023-04-07T17:46:11.220Z,9.26
2023-04-07T17:48:40.885Z,9.24
2023-04-07T17:51:12.716Z,9.12
2023-04-07T17:53:41.789Z,9.11
2023-04-07T17:56:12.842Z,9.35
2023-04-07T17:58:46.218Z,9.48
2023-04-07T18:01:18.953Z,8.98
2023-04-07T18:03:50.981Z,9.04
2023-04-07T18:06:20.993Z,9.06
2023-04-07T18:08:50.708Z,8.91
2023-04-07T18:11:22.437Z,9.49
2023-04-07T18:13:57.148Z,9.60
2023-04-07T18:16:26.671Z,9.15
2023-04-07T18:19:00.679Z,9.13
2023-04-07T18:21:32.026Z,9.12
2023-04-07T18:24:02.987Z,9.58
2023-04-07T18:26:33.327Z,10.11
2023-04-07T18:29:11.015Z,9.54
2023-04-07T18:31:42.451Z,9.26
2023-04-07T18:34:13.118Z,9.11
2023-04-07T18:36:43.173Z,9.05
2023-04-07T18:39:13.663Z,8.94
2023-04-07T18:41:46.630Z,9.34
2023-04-07T18:44:15.729Z,8.98
2023-04-07T18:46:50.075Z,9.02
2023-04-07T18:49:19.354Z,8.88
2023-04-07T18:51:49.447Z,8.93
2023-04-07T18:54:19.907Z,9.12
2023-04-07T18:56:56.405Z,9.31
2023-04-07T18:59:26.261Z,8.87
2023-04-07T19:01:56.626Z,8.92
2023-04-07T19:04:28.164Z,8.80
2023-04-07T19:06:57.765Z,8.75
2023-04-07T19:09:27.225Z,8.68
2023-04-07T19:11:58.283Z,9.14
2023-04-07T19:14:33.563Z,8.77
2023-04-07T19:17:06.344Z,8.87
2023-04-07T19:19:35.909Z,8.86
2023-04-07T19:22:05.450Z,8.79
2023-04-07T19:24:36.355Z,9.76
2023-04-07T19:27:09.463Z,9.79
2023-04-07T19:29:38.517Z,8.82
2023-04-07T19:32:08.040Z,8.70
2023-04-07T19:34:43.008Z,9.19
2023-04-07T19:37:12.131Z,8.81
2023-04-07T19:40:01.544Z,8.85
2023-04-07T19:42:33.526Z,9.19
2023-04-07T19:45:02.794Z,8.75
2023-04-07T19:47:32.855Z,8.90
2023-04-07T19:50:02.442Z,9.06
2023-04-07T19:52:33.353Z,9.05
2023-04-07T19:55:03.909Z,9.05
2023-04-07T19:57:35.339Z,9.28
2023-04-07T20:00:05.682Z,9.93
2023-04-07T20:02:35.918Z,9.02
2023-04-07T20:05:08.605Z,9.24
2023-04-07T20:07:38.002Z,8.97
2023-04-07T20:10:07.892Z,9.25
2023-04-07T20:12:39.444Z,9.39
2023-04-07T20:15:09.912Z,9.32
2023-04-07T20:17:40.125Z,9.07
2023-04-07T20:20:15.773Z,9.28
2023-04-07T20:22:45.515Z,9.00
2023-04-07T20:25:14.454Z,9.06
2023-04-07T20:27:46.809Z,9.44
2023-04-07T20:30:16.398Z,9.07
2023-04-07T20:32:47.138Z,9.03
2023-04-07T20:35:16.089Z,9.13
2023-04-07T20:37:45.877Z,9.13
2023-04-07T20:40:14.963Z,9.17
2023-04-07T20:42:47.649Z,9.35
2023-04-07T20:45:16.369Z,10.04
2023-04-07T20:47:45.889Z,9.14
2023-04-07T20:50:14.759Z,9.13
2023-04-07T20:52:45.786Z,9.56
2023-04-07T20:55:14.924Z,9.17
2023-04-07T20:57:44.036Z,8.94
2023-04-07T21:00:18.935Z,9.37
2023-04-07T21:02:48.819Z,8.88
2023-04-07T21:05:17.564Z,8.89
2023-04-07T21:07:46.578Z,8.85
2023-04-07T21:10:18.259Z,8.82
2023-04-07T21:12:49.450Z,9.10
2023-04-07T21:15:19.768Z,9.02
2023-04-07T21:17:48.746Z,8.57
2023-04-07T21:20:17.766Z,8.24
2023-04-07T21:22:47.380Z,7.98
2023-04-07T21:25:16.255Z,7.91
2023-04-07T21:27:45.657Z,7.71
2023-04-07T21:30:18.917Z,8.26
2023-04-07T21:32:48.086Z,7.74
2023-04-07T21:35:17.808Z,7.72
2023-04-07T21:37:47.050Z,7.60
2023-04-07T21:40:17.008Z,7.53
2023-04-07T21:42:48.316Z,7.03
2023-04-07T21:45:18.935Z,7.02
2023-04-07T21:47:47.865Z,6.97
2023-04-07T21:50:17.178Z,7.04
2023-04-07T21:53:01.247Z,7.89
2023-04-07T21:55:33.174Z,6.64
2023-04-07T21:58:07.920Z,6.84
2023-04-07T22:00:39.296Z,6.52
2023-04-07T22:03:08.857Z,6.15
2023-04-07T22:05:44.276Z,6.18
2023-04-07T22:08:24.592Z,6.43
2023-04-07T22:11:05.480Z,6.39
2023-04-07T22:13:38.163Z,6.39
2023-04-07T22:16:08.990Z,6.85
2023-04-07T22:18:44.722Z,6.62
2023-04-07T22:21:14.420Z,6.63
2023-04-07T22:23:54.281Z,6.75
2023-04-07T22:26:24.172Z,6.05
2023-04-07T22:29:03.781Z,6.92
2023-04-07T22:31:37.030Z,6.62
2023-04-07T22:34:07.070Z,6.61
2023-04-07T22:36:36.860Z,6.69
2023-04-07T22:39:09.321Z,6.06
2023-04-07T22:41:38.739Z,6.01
2023-04-07T22:44:38.551Z,6.17
2023-04-07T22:50:19.624Z,6.37
2023-04-07T22:52:53.773Z,5.68
2023-04-07T22:55:24.412Z,5.82
2023-04-07T23:00:55.727Z,6.04
2023-04-07T23:03:32.113Z,5.37
2023-04-07T23:06:25.733Z,6.08
2023-04-07T23:08:55.704Z,5.58
2023-04-07T23:11:24.108Z,5.70
2023-04-07T23:13:52.823Z,5.15
2023-04-07T23:16:21.133Z,5.24
2023-04-07T23:18:49.876Z,5.94
2023-04-07T23:21:20.001Z,6.09
2023-04-07T23:23:48.866Z,5.83
2023-04-07T23:26:18.044Z,5.75
2023-04-07T23:28:47.001Z,5.53
2023-04-07T23:31:15.356Z,5.25
2023-04-07T23:33:43.792Z,5.59
2023-04-07T23:36:12.056Z,5.28
2023-04-07T23:38:42.124Z,5.88
2023-04-07T23:41:10.480Z,6.03
2023-04-07T23:43:39.540Z,5.33
2023-04-07T23:46:08.003Z,5.89
2023-04-07T23:48:36.825Z,5.52
2023-04-07T23:51:05.152Z,5.27
2023-04-07T23:53:33.676Z,5.12
2023-04-07T23:56:03.501Z,5.52
2023-04-07T23:58:31.934Z,5.11
